Time;durP1;ratioP1;P1;durP2;ratioP2;P2;SDS_P1;SDS_P2;PMS_P1;PMS_P2;Temp;Humidity;BMP_temperature;BMP_pressure;BME280_temperature;BME280_humidity;BME280_pressure;Samples;Min_cycle;Max_cycle;Signal;HPM_P1;HPM_P2
2022/11/20 00:02:01;;;;;;;25.88;17.65;;;;;;;-1.99;89.87;100671.09;7399030;19;20549;-68
2022/11/20 00:04:29;;;;;;;27.33;17.40;;;;;;;-2.01;89.85;100678.78;7397503;19;20070;-67
2022/11/20 00:06:58;;;;;;;27.98;18.27;;;;;;;-2.00;89.90;100675.38;7397568;19;20070;-67
2022/11/20 00:09:29;;;;;;;26.10;16.58;;;;;;;-1.99;89.67;100668.53;7399377;19;20086;-68
2022/11/20 00:11:57;;;;;;;28.98;18.45;;;;;;;-2.00;89.84;100661.63;7396622;19;20516;-68
2022/11/20 00:14:26;;;;;;;23.80;15.52;;;;;;;-2.03;89.82;100667.56;7396314;19;20468;-67
2022/11/20 00:16:54;;;;;;;27.45;16.45;;;;;;;-2.02;89.77;100668.44;7397899;19;20025;-67
2022/11/20 00:19:22;;;;;;;28.58;16.98;;;;;;;-2.04;89.68;100667.53;7396838;19;20082;-68
2022/11/20 00:21:53;;;;;;;26.30;16.42;;;;;;;-2.05;89.58;100670.94;7398626;19;20093;-67
2022/11/20 00:24:22;;;;;;;28.13;18.40;;;;;;;-2.05;89.62;100664.06;7396771;19;20018;-67
2022/11/20 00:26:53;;;;;;;29.75;18.70;;;;;;;-2.05;89.40;100668.34;7398771;19;20081;-67
2022/11/20 00:29:21;;;;;;;29.23;17.92;;;;;;;-2.07;89.32;100670.88;7398391;19;20070;-68
2022/11/20 00:31:50;;;;;;;28.58;17.45;;;;;;;-2.08;89.52;100661.44;7398587;19;20019;-68
2022/11/20 00:34:18;;;;;;;28.02;17.95;;;;;;;-2.09;89.41;100657.09;7396789;19;20018;-68
2022/11/20 00:36:46;;;;;;;30.30;19.17;;;;;;;-2.08;89.31;100665.72;7397474;19;20082;-68
2022/11/20 00:39:15;;;;;;;28.60;17.33;;;;;;;-2.08;89.32;100670.84;7395854;19;20545;-67
2022/11/20 00:41:43;;;;;;;28.08;18.00;;;;;;;-2.07;89.50;100670.88;7398266;19;20094;-68
2022/11/20 00:44:14;;;;;;;27.33;17.15;;;;;;;-2.06;89.48;100674.31;7395757;19;20035;-67
2022/11/20 00:46:43;;;;;;;28.38;17.63;;;;;;;-2.03;89.12;100674.44;7397913;19;20078;-67
2022/11/20 00:49:11;;;;;;;25.67;16.58;;;;;;;-2.02;89.41;100671.00;7397639;19;20086;-65
2022/11/20 00:51:40;;;;;;;26.55;16.85;;;;;;;-2.01;89.05;100676.22;7397537;19;20090;-67
2022/11/20 00:54:08;;;;;;;26.13;16.48;;;;;;;-1.99;89.27;100668.53;7396273;19;20439;-66
2022/11/20 00:56:36;;;;;;;27.25;17.10;;;;;;;-1.96;89.16;100673.75;7395200;19;20074;-67
2022/11/20 00:59:05;;;;;;;27.65;16.20;;;;;;;-1.94;89.13;100671.25;7396924;19;20070;-67
2022/11/20 01:01:36;;;;;;;24.85;16.92;;;;;;;-1.92;88.70;100678.16;7397330;19;20086;-66
2022/11/20 01:04:05;;;;;;;24.73;16.40;;;;;;;-1.91;89.05;100679.88;7395456;19;20485;-67
2022/11/20 01:06:35;;;;;;;25.48;16.60;;;;;;;-1.90;89.14;100673.91;7397023;19;20074;-67
2022/11/20 01:09:08;;;;;;;24.83;16.00;;;;;;;-1.88;89.18;100677.41;7395476;19;20078;-67
2022/11/20 01:11:38;;;;;;;25.52;16.23;;;;;;;-1.86;88.89;100678.34;7394822;19;20074;-67
2022/11/20 01:14:08;;;;;;;25.90;16.67;;;;;;;-1.86;89.01;100678.34;7395110;19;20093;-68
2022/11/20 01:16:41;;;;;;;26.10;16.23;;;;;;;-1.84;89.02;100675.81;7396518;19;20014;-67
2022/11/20 01:19:13;;;;;;;22.33;14.75;;;;;;;-1.82;88.87;100676.69;7396970;19;20082;-67
2022/11/20 01:21:44;;;;;;;24.65;16.92;;;;;;;-1.82;88.94;100667.31;7394986;19;20489;-67
2022/11/20 01:24:15;;;;;;;22.75;15.60;;;;;;;-1.81;88.96;100674.19;7395422;19;20082;-66
2022/11/20 01:26:45;;;;;;;20.45;14.93;;;;;;;-1.81;88.70;100670.72;7396356;19;20424;-67
2022/11/20 01:29:17;;;;;;;24.63;16.55;;;;;;;-1.80;88.63;100669.91;7396245;19;20019;-65
2022/11/20 01:31:48;;;;;;;22.83;15.93;;;;;;;-1.80;88.79;100664.78;7397028;19;20090;-67
2022/11/20 01:34:18;;;;;;;25.70;15.90;;;;;;;-1.81;88.69;100669.06;7394618;19;20014;-66
2022/11/20 01:36:47;;;;;;;24.58;15.55;;;;;;;-1.81;88.70;100661.34;7395374;19;20541;-68
2022/11/20 01:39:19;;;;;;;21.40;14.80;;;;;;;-1.82;88.58;100669.88;7395886;19;20422;-68
2022/11/20 01:44:51;;;;;;;25.88;16.38;;;;;;;-1.83;88.30;100662.97;7394001;19;20025;-68
2022/11/20 01:47:26;;;;;;;23.90;14.80;;;;;;;-1.86;88.21;100655.19;7396259;19;20089;-67
2022/11/20 01:50:00;;;;;;;25.52;16.35;;;;;;;-1.84;88.26;100657.81;7396535;19;20018;-67
2022/11/20 01:52:33;;;;;;;22.88;15.23;;;;;;;-1.86;87.79;100646.59;7396527;19;20022;-67
2022/11/20 01:55:06;;;;;;;26.50;17.05;;;;;;;-1.85;87.94;100654.34;7394157;19;20074;-67
2022/11/20 01:57:36;;;;;;;27.63;16.70;;;;;;;-1.85;88.19;100649.19;7394953;19;20418;-67
2022/11/20 02:00:09;;;;;;;23.70;15.68;;;;;;;-1.84;88.21;100640.66;7396112;19;20089;-68
2022/11/20 02:02:42;;;;;;;26.42;16.48;;;;;;;-1.84;87.45;100648.38;7395880;19;20018;-69
2022/11/20 02:05:19;;;;;;;26.15;16.98;;;;;;;-1.83;87.56;100647.56;7396033;19;20074;-68
2022/11/20 02:07:49;;;;;;;25.70;15.88;;;;;;;-1.82;87.64;100645.84;7395221;19;20031;-68
2022/11/20 02:10:18;;;;;;;23.73;14.90;;;;;;;-1.82;86.81;100639.00;7393716;19;20085;-68
2022/11/20 02:15:40;;;;;;;21.77;13.50;;;;;;;-1.81;87.51;100634.72;7391422;19;20047;-67
2022/11/20 02:18:12;;;;;;;22.83;14.38;;;;;;;-1.78;87.49;100642.53;7393423;19;20082;-67
2022/11/20 02:20:42;;;;;;;22.48;14.70;;;;;;;-1.78;87.61;100634.81;7393048;19;20078;-66
2022/11/20 02:23:15;;;;;;;21.48;13.88;;;;;;;-1.77;87.25;100635.69;7394083;19;20090;-67
2022/11/20 02:25:48;;;;;;;26.45;14.45;;;;;;;-1.75;87.51;100641.75;7395125;19;20015;-67
2022/11/20 02:28:17;;;;;;;22.57;13.93;;;;;;;-1.73;86.98;100642.66;7394536;19;20074;-67
2022/11/20 02:30:46;;;;;;;24.23;15.00;;;;;;;-1.73;87.27;100638.38;7395111;19;20521;-67
2022/11/20 02:33:15;;;;;;;23.85;14.73;;;;;;;-1.70;87.86;100637.59;7401696;19;20085;-67
2022/11/20 02:35:47;;;;;;;26.67;15.60;;;;;;;-1.69;87.52;100637.63;7401995;19;20074;-66
2022/11/20 02:38:17;;;;;;;23.35;15.43;;;;;;;-1.68;87.10;100630.78;7399042;19;20491;-66
2022/11/20 02:40:48;;;;;;;25.05;15.50;;;;;;;-1.67;87.04;100632.53;7401898;19;20027;-66
2022/11/20 02:43:18;;;;;;;24.67;16.17;;;;;;;-1.68;87.01;100620.47;7401473;19;20086;-66
2022/11/20 02:45:46;;;;;;;23.15;15.90;;;;;;;-1.70;86.78;100617.03;7400004;19;20109;-66
2022/11/20 02:48:15;;;;;;;22.40;14.98;;;;;;;-1.68;86.58;100626.53;7402059;19;20090;-66
2022/11/20 02:50:43;;;;;;;25.20;15.32;;;;;;;-1.68;86.51;100623.06;7401898;19;20032;-66
2022/11/20 02:53:12;;;;;;;25.25;16.00;;;;;;;-1.68;85.98;100618.81;7401023;19;20025;-66
2022/11/20 02:55:40;;;;;;;23.42;14.93;;;;;;;-1.68;86.09;100617.91;7401865;19;20078;-66
2022/11/20 02:58:11;;;;;;;23.00;14.18;;;;;;;-1.66;87.02;100613.69;7399932;19;20015;-66
2022/11/20 03:00:40;;;;;;;27.00;15.73;;;;;;;-1.65;86.79;100618.00;7399360;19;20019;-66
2022/11/20 03:03:08;;;;;;;23.25;14.85;;;;;;;-1.65;86.65;100620.59;7398758;19;20086;-67
2022/11/20 03:05:37;;;;;;;24.73;14.40;;;;;;;-1.65;86.09;100610.28;7401027;19;20015;-66
2022/11/20 03:08:06;;;;;;;26.33;16.27;;;;;;;-1.65;86.27;100600.84;7398710;19;20015;-66
2022/11/20 03:10:35;;;;;;;26.05;16.73;;;;;;;-1.64;87.00;100612.03;7401432;19;20031;-67
2022/11/20 03:13:03;;;;;;;24.88;15.98;;;;;;;-1.64;86.73;100605.19;7400302;19;20024;-66
2022/11/20 03:15:34;;;;;;;26.17;15.50;;;;;;;-1.63;86.69;100608.63;7401088;19;20014;-66
2022/11/20 03:18:03;;;;;;;25.05;16.90;;;;;;;-1.63;86.98;100611.22;7400038;19;20015;-66
2022/11/20 03:20:31;;;;;;;27.30;15.88;;;;;;;-1.64;86.65;100607.75;7398386;19;20031;-67
2022/11/20 03:23:00;;;;;;;26.42;16.40;;;;;;;-1.65;86.43;100608.56;7400383;19;20082;-66
2022/11/20 03:25:28;;;;;;;26.42;16.02;;;;;;;-1.66;86.85;100605.97;7397852;19;20082;-66
2022/11/20 03:27:57;;;;;;;25.40;17.08;;;;;;;-1.67;86.74;100601.66;7400367;19;20493;-67
2022/11/20 03:30:25;;;;;;;27.80;16.88;;;;;;;-1.68;86.64;100597.34;7398117;19;20015;-66
2022/11/20 03:32:58;;;;;;;23.92;15.25;;;;;;;-1.69;86.43;100601.63;7397531;19;20074;-67
2022/11/20 03:35:26;;;;;;;28.33;17.67;;;;;;;-1.71;86.25;100589.56;7400898;19;20095;-67
2022/11/20 03:37:55;;;;;;;26.25;16.33;;;;;;;-1.73;86.45;100589.53;7399122;19;20070;-66
2022/11/20 03:40:23;;;;;;;27.55;17.05;;;;;;;-1.73;86.03;100583.47;7400295;19;20078;-67
2022/11/20 03:42:51;;;;;;;25.10;16.25;;;;;;;-1.74;86.31;100589.47;7397098;19;20074;-66
2022/11/20 03:45:20;;;;;;;24.65;15.82;;;;;;;-1.77;86.11;100585.09;7397730;19;20086;-66
2022/11/20 03:47:49;;;;;;;30.65;17.13;;;;;;;-1.76;86.58;100583.41;7397263;19;20423;-66
2022/11/20 03:50:20;;;;;;;25.60;15.38;;;;;;;-1.77;86.61;100589.38;7400019;19;20090;-66
2022/11/20 03:52:48;;;;;;;26.23;16.17;;;;;;;-1.78;86.23;100583.38;7399364;19;20545;-66
2022/11/20 03:55:17;;;;;;;25.20;15.05;;;;;;;-1.77;86.64;100584.25;7399823;19;20023;-66
2022/11/20 03:57:45;;;;;;;23.80;15.77;;;;;;;-1.80;86.69;100580.75;7398890;19;20022;-66
2022/11/20 04:00:16;;;;;;;25.35;15.40;;;;;;;-1.82;86.17;100577.28;7396977;19;20082;-66
2022/11/20 04:02:44;;;;;;;25.05;15.55;;;;;;;-1.84;86.33;100585.78;7397273;19;20398;-66
2022/11/20 04:05:12;;;;;;;26.23;15.63;;;;;;;-1.88;85.96;100587.41;7399484;19;20086;-66
2022/11/20 04:07:43;;;;;;;24.58;14.02;;;;;;;-1.91;86.09;100587.31;7399429;19;20078;-66
2022/11/20 04:10:12;;;;;;;25.92;16.33;;;;;;;-1.96;85.90;100583.75;7399723;19;20070;-66
2022/11/20 04:12:40;;;;;;;26.45;15.60;;;;;;;-2.00;86.23;100590.53;7396488;19;20090;-66
2022/11/20 04:15:09;;;;;;;24.65;15.25;;;;;;;-2.09;86.63;100579.97;7398556;19;20474;-66
2022/11/20 04:17:38;;;;;;;24.77;15.38;;;;;;;-2.13;86.15;100579.03;7396736;19;20010;-66
2022/11/20 04:20:08;;;;;;;22.25;14.77;;;;;;;-2.16;86.05;100586.66;7398649;19;20548;-66
2022/11/20 04:22:37;;;;;;;25.05;15.15;;;;;;;-2.21;86.68;100593.38;7398907;19;20014;-66
2022/11/20 04:25:08;;;;;;;26.40;14.68;;;;;;;-2.25;86.58;100583.84;7396322;19;20018;-66
2022/11/20 04:27:37;;;;;;;21.45;14.98;;;;;;;-2.27;86.85;100592.31;7399228;19;20086;-66
2022/11/20 04:30:06;;;;;;;32.58;21.13;;;;;;;-2.33;86.54;100600.75;7398216;19;20015;-66
2022/11/20 04:32:34;;;;;;;27.25;14.77;;;;;;;-2.40;86.07;100592.00;7396533;19;20031;-67
2022/11/20 04:35:03;;;;;;;22.25;14.05;;;;;;;-2.43;86.44;100596.16;7398202;19;20423;-66
2022/11/20 04:37:31;;;;;;;22.88;14.18;;;;;;;-2.50;86.67;100596.00;7398042;19;20031;-66
2022/11/20 04:40:00;;;;;;;20.00;13.60;;;;;;;-2.54;87.02;100594.16;7397850;19;20488;-66
2022/11/20 04:42:31;;;;;;;19.70;13.68;;;;;;;-2.58;86.64;100589.75;7396052;19;20019;-65
2022/11/20 04:45:00;;;;;;;22.83;13.93;;;;;;;-2.61;86.87;100589.66;7395634;19;20014;-66
2022/11/20 04:47:28;;;;;;;22.88;13.85;;;;;;;-2.64;87.19;100587.88;7398663;19;20035;-66
2022/11/20 04:49:57;;;;;;;20.10;13.65;;;;;;;-2.67;86.74;100584.34;7398002;19;20435;-66
2022/11/20 04:52:25;;;;;;;22.52;13.68;;;;;;;-2.69;86.86;100580.84;7397954;19;20035;-66
2022/11/20 04:54:55;;;;;;;21.55;15.38;;;;;;;-2.72;86.66;100579.06;7394990;19;20508;-66
2022/11/20 04:57:23;;;;;;;21.55;13.90;;;;;;;-2.75;86.54;100583.25;7397248;19;20477;-66
2022/11/20 04:59:54;;;;;;;23.50;16.05;;;;;;;-2.79;86.49;100580.59;7397323;19;20019;-67
2022/11/20 05:02:30;;;;;;;25.63;15.80;;;;;;;-2.79;86.65;100578.03;7397401;19;20509;-66
2022/11/20 05:04:58;;;;;;;23.30;14.93;;;;;;;-2.80;86.64;100572.84;7395187;19;20506;-66
2022/11/20 05:07:27;;;;;;;21.88;13.50;;;;;;;-2.81;87.11;100569.38;7397488;19;20099;-66
2022/11/20 05:09:55;;;;;;;24.25;15.15;;;;;;;-2.81;86.84;100566.81;7397341;19;20035;-66
2022/11/20 05:12:23;;;;;;;23.17;14.27;;;;;;;-2.81;86.48;100564.25;7395423;19;20026;-66
2022/11/20 05:14:54;;;;;;;23.88;14.35;;;;;;;-2.80;86.71;100560.00;7395309;19;20077;-66
2022/11/20 05:17:23;;;;;;;23.83;14.48;;;;;;;-2.80;86.05;100568.56;7395618;19;20083;-66
2022/11/20 05:19:51;;;;;;;21.65;14.27;;;;;;;-2.81;86.55;100563.38;7396608;19;20502;-67
2022/11/20 05:22:20;;;;;;;20.83;13.07;;;;;;;-2.79;86.07;100569.47;7395085;19;20022;-67
2022/11/20 05:24:55;;;;;;;22.23;14.25;;;;;;;-2.80;86.39;100567.72;7394534;19;20419;-65
2022/11/20 05:27:23;;;;;;;26.20;14.52;;;;;;;-2.82;86.03;100564.22;7394742;19;20151;-67
2022/11/20 05:29:55;;;;;;;22.35;13.95;;;;;;;-2.80;86.16;100560.00;7396666;19;20018;-66
2022/11/20 05:32:25;;;;;;;21.55;14.80;;;;;;;-2.80;86.03;100565.13;7397106;19;20036;-66
2022/11/20 05:34:53;;;;;;;20.85;13.43;;;;;;;-2.80;85.79;100566.00;7395608;19;20023;-66
2022/11/20 05:37:22;;;;;;;21.90;14.95;;;;;;;-2.80;86.02;100567.72;7396130;19;20542;-66
2022/11/20 05:39:50;;;;;;;21.38;13.90;;;;;;;-2.81;85.95;100561.69;7394666;19;20086;-66
2022/11/20 05:42:34;;;;;;;24.02;13.95;;;;;;;-2.82;85.89;100562.53;7395999;19;20542;-66
2022/11/20 05:45:06;;;;;;;20.17;14.50;;;;;;;-2.83;86.02;100560.78;7396155;19;20031;-66
2022/11/20 05:47:36;;;;;;;18.48;12.82;;;;;;;-2.83;86.15;100560.78;7396733;19;20014;-66
2022/11/20 05:50:05;;;;;;;19.23;13.43;;;;;;;-2.83;86.14;100549.63;7395729;19;20018;-66
2022/11/20 05:52:33;;;;;;;18.25;13.13;;;;;;;-2.84;86.35;100553.91;7394040;19;20019;-66
2022/11/20 05:55:02;;;;;;;23.30;14.20;;;;;;;-2.83;86.47;100555.66;7395982;19;20090;-66
2022/11/20 05:57:30;;;;;;;20.33;13.98;;;;;;;-2.84;86.32;100556.47;7395978;19;20022;-66
2022/11/20 05:59:59;;;;;;;20.50;13.60;;;;;;;-2.84;86.20;100551.34;7394142;19;20085;-65
2022/11/20 06:02:30;;;;;;;20.20;13.27;;;;;;;-2.83;86.40;100557.31;7395745;19;20082;-66
2022/11/20 06:04:58;;;;;;;19.83;13.75;;;;;;;-2.84;86.40;100551.34;7391732;19;20022;-66
2022/11/20 06:07:27;;;;;;;22.10;14.90;;;;;;;-2.84;86.42;100546.19;7395562;19;20019;-66
2022/11/20 06:09:55;;;;;;;24.67;16.60;;;;;;;-2.83;86.33;100552.19;7395186;19;20439;-66
2022/11/20 06:12:23;;;;;;;23.13;14.90;;;;;;;-2.85;86.53;100549.59;7395532;19;20077;-67
2022/11/20 06:14:52;;;;;;;21.88;14.25;;;;;;;-2.85;86.61;100559.84;7393217;19;20481;-66
2022/11/20 06:17:20;;;;;;;24.48;14.63;;;;;;;-2.85;86.46;100552.16;7393583;19;20032;-66
2022/11/20 06:19:51;;;;;;;23.90;14.32;;;;;;;-2.86;86.10;100552.97;7393567;19;20019;-66
2022/11/20 06:22:20;;;;;;;23.05;15.25;;;;;;;-2.86;86.53;100550.41;7395478;19;20026;-66
2022/11/20 06:24:48;;;;;;;22.52;14.35;;;;;;;-2.86;86.62;100552.97;7393433;19;20082;-67
2022/11/20 06:27:17;;;;;;;23.95;15.13;;;;;;;-2.87;86.55;100548.69;7395017;19;20031;-67
2022/11/20 06:29:45;;;;;;;23.52;15.32;;;;;;;-2.86;86.61;100552.97;7394952;19;20070;-66
2022/11/20 06:32:14;;;;;;;24.02;16.08;;;;;;;-2.86;86.40;100550.41;7394952;19;20039;-66
2022/11/20 06:34:42;;;;;;;23.85;15.25;;;;;;;-2.87;86.52;100543.56;7392478;19;20082;-66
2022/11/20 06:37:13;;;;;;;22.38;15.85;;;;;;;-2.85;86.57;100547.03;7394952;19;20014;-67
2022/11/20 06:39:42;;;;;;;23.75;16.38;;;;;;;-2.86;86.29;100550.41;7393677;19;20074;-66
2022/11/20 06:42:10;;;;;;;27.23;17.35;;;;;;;-2.87;86.48;100553.81;7394197;19;20015;-68
2022/11/20 06:44:38;;;;;;;25.23;16.38;;;;;;;-2.86;86.53;100545.28;7392623;19;20078;-68
2022/11/20 06:47:07;;;;;;;22.80;15.55;;;;;;;-2.85;86.53;100551.28;7392526;19;20074;-67
2022/11/20 06:49:36;;;;;;;26.30;15.55;;;;;;;-2.85;86.91;100552.16;7394434;19;20018;-66
2022/11/20 06:52:05;;;;;;;27.23;17.30;;;;;;;-2.86;86.07;100555.53;7394223;19;20041;-66
2022/11/20 06:54:36;;;;;;;24.40;15.68;;;;;;;-2.86;86.28;100549.53;7391915;19;20025;-67
2022/11/20 06:57:05;;;;;;;24.13;15.38;;;;;;;-2.87;86.14;100553.81;7394822;19;20074;-68
2022/11/20 06:59:33;;;;;;;24.27;16.60;;;;;;;-2.87;85.85;100547.81;7391783;19;20078;-67
2022/11/20 07:02:02;;;;;;;24.30;15.65;;;;;;;-2.89;86.25;100554.56;7394169;19;20022;-67
2022/11/20 07:04:30;;;;;;;25.75;16.73;;;;;;;-2.91;85.91;100545.97;7391966;19;20477;-68
2022/11/20 07:06:58;;;;;;;28.38;17.55;;;;;;;-2.91;86.23;100551.97;7393970;19;20019;-68
2022/11/20 07:09:27;;;;;;;27.67;17.00;;;;;;;-2.92;85.52;100562.19;7391520;19;20502;-68
2022/11/20 07:11:58;;;;;;;25.38;16.85;;;;;;;-2.92;85.79;100557.91;7393906;19;20085;-68
2022/11/20 07:14:26;;;;;;;27.45;16.98;;;;;;;-2.92;85.54;100557.91;7391804;19;20018;-67
2022/11/20 07:16:55;;;;;;;25.67;16.08;;;;;;;-2.92;85.94;100557.06;7394678;19;20032;-68
2022/11/20 07:19:23;;;;;;;25.73;17.20;;;;;;;-2.93;85.76;100563.00;7399582;19;20095;-67
2022/11/20 07:21:52;;;;;;;29.10;17.52;;;;;;;-2.94;86.19;100557.03;7400545;19;20506;-68
2022/11/20 07:24:20;;;;;;;30.27;17.42;;;;;;;-2.96;84.26;100556.97;7398193;19;20027;-68
2022/11/20 07:26:49;;;;;;;29.75;17.98;;;;;;;-2.97;85.54;100557.81;7400520;19;20367;-68
2022/11/20 07:29:20;;;;;;;29.05;17.08;;;;;;;-2.98;85.00;100558.63;7400685;19;20011;-68
2022/11/20 07:31:49;;;;;;;30.25;18.42;;;;;;;-2.99;85.55;100558.59;7401093;19;20031;-68
2022/11/20 07:34:17;;;;;;;29.52;18.63;;;;;;;-3.00;86.12;100552.56;7398476;19;20039;-67
2022/11/20 07:36:45;;;;;;;26.63;17.38;;;;;;;-2.99;85.93;100559.44;7400411;19;20018;-68
2022/11/20 07:39:14;;;;;;;26.92;17.63;;;;;;;-2.99;85.75;100549.19;7398784;19;20481;-67
2022/11/20 07:41:42;;;;;;;28.23;18.77;;;;;;;-2.97;86.05;100549.22;7398021;19;20091;-67
2022/11/20 07:44:11;;;;;;;31.67;19.58;;;;;;;-2.96;86.23;100544.16;7398124;19;20023;-67
2022/11/20 07:46:42;;;;;;;30.48;20.23;;;;;;;-2.93;86.32;100542.47;7398118;19;20485;-68
2022/11/20 07:49:10;;;;;;;27.92;18.73;;;;;;;-2.91;86.49;100551.13;7397576;19;20485;-66
2022/11/20 07:51:39;;;;;;;32.00;19.15;;;;;;;-2.91;86.02;100549.41;7400045;19;20074;-65
2022/11/20 07:54:07;;;;;;;31.65;18.00;;;;;;;-2.90;85.84;100548.59;7398365;19;20018;-65
2022/11/20 07:56:36;;;;;;;29.52;18.85;;;;;;;-2.88;85.99;100553.75;7399996;19;20026;-65
2022/11/20 07:59:05;;;;;;;32.15;19.65;;;;;;;-2.88;85.20;100546.94;7398692;19;20489;-66
2022/11/20 08:01:34;;;;;;;26.33;17.77;;;;;;;-2.86;85.49;100552.97;7399598;19;20037;-66
2022/11/20 08:04:05;;;;;;;27.35;17.90;;;;;;;-2.84;85.59;100546.19;7398069;19;20424;-66
2022/11/20 08:06:34;;;;;;;31.23;19.67;;;;;;;-2.82;85.27;100549.69;7399230;19;20431;-66
2022/11/20 08:09:02;;;;;;;31.30;19.85;;;;;;;-2.82;85.25;100542.00;7396740;19;20032;-65
2022/11/20 08:14:15;;;;;;;32.55;19.83;;;;;;;-2.77;85.58;100534.41;7397718;19;20042;-66
2022/11/20 08:16:45;;;;;;;32.85;19.73;;;;;;;-2.76;85.35;100525.03;7399609;19;20021;-66
2022/11/20 08:19:17;;;;;;;32.85;19.23;;;;;;;-2.75;85.63;100526.78;7396677;19;20077;-67
2022/11/20 08:21:46;;;;;;;32.08;19.55;;;;;;;-2.73;85.86;100523.41;7397039;19;20026;-67
2022/11/20 08:24:14;;;;;;;32.65;20.42;;;;;;;-2.71;85.45;100524.31;7396816;19;20018;-66
2022/11/20 08:26:43;;;;;;;33.38;20.10;;;;;;;-2.69;84.85;100532.94;7398715;19;20051;-66
2022/11/20 08:29:11;;;;;;;32.40;20.13;;;;;;;-2.68;84.71;100533.81;7396756;19;20373;-66
2022/11/20 08:31:40;;;;;;;31.77;19.75;;;;;;;-2.66;85.04;100529.59;7398703;19;20082;-66
2022/11/20 08:34:08;;;;;;;36.53;20.92;;;;;;;-2.65;84.70;100523.63;7396187;19;20022;-66
2022/11/20 08:36:39;;;;;;;31.05;19.80;;;;;;;-2.63;84.97;100521.97;7395722;19;20082;-66
2022/11/20 08:39:08;;;;;;;32.65;20.02;;;;;;;-2.63;84.22;100512.56;7398238;19;20090;-66
2022/11/20 08:41:36;;;;;;;30.60;19.10;;;;;;;-2.62;84.75;100514.31;7398032;19;20022;-66
2022/11/20 08:44:07;;;;;;;32.90;20.83;;;;;;;-2.61;84.42;100515.19;7396303;19;20383;-66
2022/11/20 08:46:37;;;;;;;33.33;20.42;;;;;;;-2.59;84.35;100510.97;7396696;19;20014;-67
2022/11/20 08:49:06;;;;;;;32.15;20.10;;;;;;;-2.56;84.58;100502.47;7398037;19;20038;-65
2022/11/20 08:51:35;;;;;;;33.90;21.55;;;;;;;-2.52;85.62;100510.28;7397702;19;20039;-66
2022/11/20 08:54:06;;;;;;;33.55;20.08;;;;;;;-2.47;84.98;100511.28;7396608;19;20018;-65
2022/11/20 08:56:35;;;;;;;30.92;19.08;;;;;;;-2.41;84.28;100507.13;7396359;19;20081;-66
2022/11/20 08:59:04;;;;;;;31.02;20.02;;;;;;;-2.37;84.97;100512.41;7397294;19;20082;-67
2022/11/20 09:01:32;;;;;;;33.53;20.30;;;;;;;-2.31;83.63;100516.88;7397110;19;20015;-67
2022/11/20 09:04:01;;;;;;;32.20;19.83;;;;;;;-2.25;84.07;100505.88;7395990;19;20031;-65
2022/11/20 09:06:29;;;;;;;30.17;18.98;;;;;;;-2.25;82.56;100504.19;7395579;19;20023;-66
2022/11/20 09:08:58;;;;;;;31.98;19.27;;;;;;;-2.23;83.30;100497.34;7396991;19;20445;-66
2022/11/20 09:11:29;;;;;;;30.67;19.80;;;;;;;-2.17;82.50;100501.81;7397367;19;20019;-66
2022/11/20 09:13:57;;;;;;;33.70;19.52;;;;;;;-2.17;82.72;100496.66;7395652;19;20078;-66
2022/11/20 09:16:26;;;;;;;37.90;22.10;;;;;;;-2.13;83.43;100501.03;7396733;19;20028;-65
2022/11/20 09:18:54;;;;;;;38.60;22.83;;;;;;;-2.09;83.77;100502.00;7396298;19;20038;-66
2022/11/20 09:21:23;;;;;;;36.60;21.88;;;;;;;-2.04;83.58;100501.28;7396861;19;20022;-66
2022/11/20 09:23:52;;;;;;;38.50;22.20;;;;;;;-2.00;83.28;100504.81;7395651;19;20026;-65
2022/11/20 09:26:20;;;;;;;37.60;22.00;;;;;;;-1.97;82.69;100497.19;7396456;19;20478;-67
2022/11/20 09:28:51;;;;;;;34.17;20.30;;;;;;;-1.92;82.22;100502.41;7394619;19;20070;-67
2022/11/20 09:31:25;;;;;;;36.65;22.20;;;;;;;-1.85;83.60;100501.75;7396179;19;20022;-67
2022/11/20 09:33:54;;;;;;;35.85;21.05;;;;;;;-1.79;82.85;100494.19;7394939;19;20035;-66
2022/11/20 09:36:22;;;;;;;37.35;22.40;;;;;;;-1.71;83.41;100490.09;7396491;19;20032;-66
2022/11/20 09:38:51;;;;;;;34.38;20.08;;;;;;;-1.63;82.79;100487.72;7396343;19;20022;-66
2022/11/20 09:41:45;;;;;;;40.28;23.88;;;;;;;-1.53;82.45;100494.81;7393532;19;20015;-66
2022/11/20 09:44:33;;;;;;;33.87;19.73;;;;;;;-1.43;82.10;100497.59;7394553;19;20042;-66
2022/11/20 09:47:07;;;;;;;32.75;18.60;;;;;;;-1.34;81.88;100492.66;7393971;19;20866;-67
2022/11/20 09:49:54;;;;;;;27.67;18.35;;;;;;;-1.25;79.23;100495.47;7396139;19;20082;-67
2022/11/20 09:52:31;;;;;;;30.88;18.35;;;;;;;-1.16;79.18;100492.22;7396148;19;20035;-66
2022/11/20 09:55:00;;;;;;;29.73;17.88;;;;;;;-1.08;79.76;100494.97;7393812;19;20011;-66
2022/11/20 09:57:36;;;;;;;27.20;16.95;;;;;;;-1.03;79.33;100488.19;7395279;19;20019;-66
2022/11/20 10:00:13;;;;;;;28.30;17.75;;;;;;;-0.92;80.94;100484.16;7394336;19;20078;-66
2022/11/20 10:02:47;;;;;;;26.95;16.63;;;;;;;-0.89;79.35;100481.63;7395805;19;20010;-67
2022/11/20 10:05:23;;;;;;;26.35;16.77;;;;;;;-0.82;76.44;100485.22;7394951;19;20415;-66
2022/11/20 10:07:58;;;;;;;27.77;17.92;;;;;;;-0.76;77.77;100479.31;7395722;19;20077;-65
2022/11/20 10:10:36;;;;;;;22.75;15.98;;;;;;;-0.73;77.15;100481.97;7395794;19;20083;-66
2022/11/20 10:13:19;;;;;;;23.90;16.90;;;;;;;-0.71;79.05;100485.41;7393126;19;20035;-66
2022/11/20 10:16:04;;;;;;;25.90;16.17;;;;;;;-0.67;77.38;100484.63;7395589;19;20022;-66
2022/11/20 10:18:50;;;;;;;29.35;17.15;;;;;;;-0.65;75.26;100480.38;7394678;19;20517;-66
2022/11/20 10:21:29;;;;;;;26.95;17.27;;;;;;;-0.63;78.52;100481.28;7393024;19;20434;-66
2022/11/20 10:24:16;;;;;;;26.48;15.80;;;;;;;-0.58;77.14;100465.91;7393449;19;20387;-66
2022/11/20 10:26:52;;;;;;;25.33;15.50;;;;;;;-0.54;78.16;100460.84;7394486;19;20481;-67
2022/11/20 10:29:24;;;;;;;29.33;16.98;;;;;;;-0.50;78.92;100465.22;7395300;19;20023;-67
2022/11/20 10:32:02;;;;;;;24.55;15.57;;;;;;;-0.45;77.67;100461.88;7395063;19;20027;-65
2022/11/20 10:34:36;;;;;;;24.85;16.02;;;;;;;-0.41;78.65;100467.09;7393128;19;20018;-67
2022/11/20 10:37:12;;;;;;;28.80;17.52;;;;;;;-0.39;78.73;100457.69;7394456;19;20027;-67
2022/11/20 10:39:48;;;;;;;26.35;16.92;;;;;;;-0.31;77.69;100462.97;7394070;19;20094;-66
2022/11/20 10:42:22;;;;;;;22.33;14.00;;;;;;;-0.31;77.06;100456.97;7391953;19;20018;-67
2022/11/20 10:45:03;;;;;;;23.35;13.82;;;;;;;-0.27;74.88;100466.50;7392196;19;20394;-67
2022/11/20 10:47:35;;;;;;;21.73;14.60;;;;;;;-0.24;77.11;100459.69;7392608;19;20036;-67
2022/11/20 10:50:08;;;;;;;27.63;15.68;;;;;;;-0.21;76.72;100451.13;7394492;19;20038;-67
2022/11/20 10:52:50;;;;;;;20.55;13.95;;;;;;;-0.18;75.35;100457.22;7397752;19;20031;-67
2022/11/20 10:55:31;;;;;;;21.83;13.68;;;;;;;-0.10;77.25;100456.47;7401874;19;20360;-67
2022/11/20 10:58:06;;;;;;;23.35;14.65;;;;;;;-0.07;76.22;100454.81;7402061;19;20014;-67
2022/11/20 11:00:35;;;;;;;18.40;13.23;;;;;;;-0.04;74.48;100454.88;7399102;19;20045;-68
2022/11/20 11:03:22;;;;;;;21.77;13.32;;;;;;;-0.03;74.90;100453.16;7403206;19;20086;-67
2022/11/20 11:05:56;;;;;;;17.75;12.35;;;;;;;-0.01;75.24;100449.75;7399339;19;20014;-67
2022/11/20 11:08:25;;;;;;;17.20;12.68;;;;;;;-0.01;73.94;100456.63;7399243;19;20031;-67
2022/11/20 11:10:57;;;;;;;17.65;12.45;;;;;;;-0.01;73.14;100449.75;7401533;19;20025;-67
2022/11/20 11:13:28;;;;;;;18.55;12.23;;;;;;;0.02;74.59;100458.41;7398920;19;20098;-66
2022/11/20 11:15:56;;;;;;;19.15;12.88;;;;;;;0.01;73.50;100448.91;7401652;19;20022;-67
2022/11/20 11:18:29;;;;;;;18.30;12.60;;;;;;;0.01;75.21;100447.19;7400942;19;20514;-67
2022/11/20 11:20:59;;;;;;;36.55;16.60;;;;;;;0.03;75.30;100440.34;7398570;19;20027;-67
2022/11/20 11:23:43;;;;;;;40.70;17.02;;;;;;;0.00;73.92;100432.59;7399715;19;20039;-68
2022/11/20 11:26:23;;;;;;;26.08;15.85;;;;;;;0.07;75.74;100430.97;7401253;19;20455;-67
2022/11/20 11:28:57;;;;;;;25.90;15.88;;;;;;;0.11;76.05;100425.00;7400433;19;20032;-67
2022/11/20 11:31:27;;;;;;;20.10;13.82;;;;;;;0.11;73.29;100427.59;7398595;19;20090;-66
2022/11/20 11:34:06;;;;;;;21.08;13.98;;;;;;;0.14;75.78;100422.50;7398517;19;20454;-65